KDAL

Dallas Love Field Airport

Dallas, Texas, USA
KDAL 190226Z 1902/1924 19020KT P6SM SCT015 BKN250 TEMPO 1902/1904 BKN019 FM190400 27015G25KT P6SM VCSH BKN050 BKN250 FM190600 33025G35KT P6SM SCT015 BKN025 TEMPO 1909/1912 -RA FM191500 33025G35KT P6SM SCT030 FM192300 34020KT P6SM FEW250
Issued Valid From Valid To
Jan-19 @ 02:26 UTC
(22 minutes ago)
Jan-19 @ 02:00 UTC
(48 minutes ago)
Jan-20 @ 00:00 UTC
(in 21 hours)
Jan-19 @ 02:00 to Jan-19 @ 04:00
KDAL 190226Z 1902/1924 19020KT P6SM SCT015 BKN250
Wind Visibility Clouds
190° at 20 knots Greater than 6 miles
  • Scattered at 1,500' AGL
  • Broken at 25,000' AGL
Temporary Jan-19 @ 02:00 to Jan-19 @ 04:00
TEMPO 1902/1904 BKN019
Clouds
  • Broken at 1,900' AGL
From Jan-19 @ 04:00 to Jan-19 @ 06:00
FM190400 27015G25KT P6SM VCSH BKN050 BKN250
Wind Visibility Clouds
270° at 15 knots
 Gusting to 25 knots
Greater than 6 miles
  • Broken at 5,000' AGL
  • Broken at 25,000' AGL
From Jan-19 @ 06:00 to Jan-19 @ 15:00
FM190600 33025G35KT P6SM SCT015 BKN025
Wind Visibility Clouds
330° at 25 knots
 Gusting to 35 knots
Greater than 6 miles
  • Scattered at 1,500' AGL
  • Broken at 2,500' AGL
Temporary Jan-19 @ 09:00 to Jan-19 @ 12:00
TEMPO 1909/1912 -RA
Conditions
  • Light Rain
From Jan-19 @ 15:00 to Jan-19 @ 23:00
FM191500 33025G35KT P6SM SCT030
Wind Visibility Clouds
330° at 25 knots
 Gusting to 35 knots
Greater than 6 miles
  • Scattered at 3,000' AGL
From Jan-19 @ 23:00 to Jan-20 @ 00:00
FM192300 34020KT P6SM FEW250
Wind Visibility Clouds
340° at 20 knots Greater than 6 miles
  • Few at 25,000' AGL
KDAL 190226Z 1902/1924 19020KT P6SM SCT015 BKN250 TEMPO 1902/1904 BKN019 FM190400 27015G25KT P6SM VCSH BKN050 BKN250 FM190600 33025G35KT P6SM SCT015 BKN025 TEMPO 1909/1912 -RA FM191500 33025G35KT P6SM SCT030 FM192300 34020KT P6SM FEW250
Issued Jan-19 @ 02:26 UTC
(22 minutes ago)
Valid From Jan-19 @ 02:00 UTC
(48 minutes ago)
Valid To Jan-20 @ 00:00 UTC
(in 21 hours)
Jan-19 @ 02:00 - Jan-19 @ 04:00
Wind Visibility
190° at 20 knots Greater than 6 miles
Clouds
  • Scattered at 1,500' AGL
  • Broken at 25,000' AGL
Temporary Jan-19 @ 02:00 - Jan-19 @ 04:00
Clouds
  • Broken at 1,900' AGL
From Jan-19 @ 04:00 - Jan-19 @ 06:00
Wind Visibility
270° at 15 knots
 Gusting to 25 knots
Greater than 6 miles
Clouds
  • Broken at 5,000' AGL
  • Broken at 25,000' AGL
From Jan-19 @ 06:00 - Jan-19 @ 15:00
Wind Visibility
330° at 25 knots
 Gusting to 35 knots
Greater than 6 miles
Clouds
  • Scattered at 1,500' AGL
  • Broken at 2,500' AGL
Temporary Jan-19 @ 09:00 - Jan-19 @ 12:00
Conditions
  • Light Rain
From Jan-19 @ 15:00 - Jan-19 @ 23:00
Wind Visibility
330° at 25 knots
 Gusting to 35 knots
Greater than 6 miles
Clouds
  • Scattered at 3,000' AGL
From Jan-19 @ 23:00 - Jan-20 @ 00:00
Wind Visibility
340° at 20 knots Greater than 6 miles
Clouds
  • Few at 25,000' AGL